Hope Airport
CYHE : now visible

Airfield :











YOU CAN JOIN US ON...

 
LOGIN :

Register | Disclaimer

   EN    FR    IT 

 









Legend :    VFR   Marginal VFR   IFR   Intensive IFR   Very Intensive IFR
Visi :
Ceiling :
>= 8 km
>= 3000ft
5 to 8 km
1000 to 3000 ft
1500m to 5 km
500 to 1000 ft
800 to 1500m
200 to 500 ft
< 800m
< 200 ft
Symbols :   Thunderstorms  Fog  Heavy snow  Heavy precipitations  Wind > 20 kt






- Airport Elevation : 128 ft
- IATA code : YHE


CYHE - Hope

CURRENT METAR :
  • 110625Z AUTO 11007KT 9SM -RA FEW020 OVC036 01/00 A3010 RMK SLP197

EXPIRED METARs :
  • 110615Z AUTO 10006KT 9SM FEW020 OVC038 01/00 A3011 RMK SLP198
  • 110600Z AUTO 10005KT 9SM -RA FEW020 OVC038 01/00 A3011 RMK SLP199
  • 110553Z AUTO 11005KT 9SM -RA OVC038 01/00 A3011 RMK SLP198
  • 110540Z AUTO 09004KT 9SM OVC040 01/00 A3011 RMK SLP198
  • 110500Z AUTO 10006KT 8SM -RA OVC046 01/M00 A3011 RMK SLP200
  • 110430Z AUTO 11008KT 9SM -RA OVC044 02/M01 A3011 RMK SLP199
  • 110400Z AUTO 11008KT 9SM BKN033 OVC048 02/M01 A3011 RMK SLP200
  • 110355Z AUTO 11007KT 9SM OVC033 02/M01 A3011 RMK SLP200
  • 110340Z AUTO 11007KT 9SM -RA BKN033 OVC049 02/M01 A3012 RMK SLP201
  • 110331Z AUTO 11007KT 9SM FEW033 OVC049 02/M01 A3012 RMK SLP201

TAF N/A



MET'MAP, your aeronautical weather chart ! - Copyright ORBIFLY December 2007 - Disclaimer

ORBIFLY MET'MAP TEAM :

Programming & Development : Alexandra Zaïnal
Concept & original design : Baudouin d'Aumeries
Assistance for programming : Marc-Olivier Méhu
Technical & hardware support : Manuel Goepfert

Contact : metmap@orbifly.com




SOURCES & CREDITS :

   NOAA       Earth
Advisory